createdAt,value
2022-09-18T00:00:11.458Z,10.75
2022-09-18T00:00:44.286Z,10.74
2022-09-18T00:01:22.670Z,10.72
2022-09-18T00:01:54.365Z,10.68
2022-09-18T00:02:26.553Z,10.74
2022-09-18T00:02:58.118Z,10.70
2022-09-18T00:03:29.657Z,10.72
2022-09-18T00:04:04.133Z,10.75
2022-09-18T00:04:35.697Z,10.71
2022-09-18T00:05:07.602Z,10.67
2022-09-18T00:05:39.365Z,10.75
2022-09-18T00:06:14.036Z,10.68
2022-09-18T00:06:45.950Z,10.74
2022-09-18T00:07:17.493Z,10.78
2022-09-18T00:07:49.003Z,10.72
2022-09-18T00:08:20.553Z,10.74
2022-09-18T00:08:54.314Z,10.74
2022-09-18T00:09:27.084Z,10.74
2022-09-18T00:09:58.583Z,10.74
2022-09-18T00:10:30.430Z,10.78
2022-09-18T00:11:07.980Z,10.72
2022-09-18T00:11:42.582Z,10.75
2022-09-18T00:12:14.136Z,10.72
2022-09-18T00:12:45.676Z,10.71
2022-09-18T00:13:17.174Z,10.74
2022-09-18T00:13:50.042Z,10.70
2022-09-18T00:14:23.270Z,10.78
2022-09-18T00:14:54.764Z,10.75
2022-09-18T00:15:26.262Z,10.71
2022-09-18T00:15:57.924Z,10.64
2022-09-18T00:16:29.652Z,10.63
2022-09-18T00:17:05.803Z,10.64
2022-09-18T00:17:40.422Z,10.65
2022-09-18T00:18:11.920Z,10.63
2022-09-18T00:18:43.832Z,10.57
2022-09-18T00:19:16.203Z,10.61
2022-09-18T00:19:47.797Z,10.61
2022-09-18T00:20:20.705Z,10.64
2022-09-18T00:20:52.219Z,10.65
2022-09-18T00:21:25.330Z,10.61
2022-09-18T00:21:56.834Z,10.65
2022-09-18T00:22:28.323Z,10.64
2022-09-18T00:22:59.852Z,10.63
2022-09-18T00:23:31.408Z,10.64
2022-09-18T00:24:04.433Z,10.61
2022-09-18T00:24:36.024Z,10.63
2022-09-18T00:25:08.667Z,10.68
2022-09-18T00:25:41.596Z,10.67
2022-09-18T00:26:15.389Z,10.64
2022-09-18T00:26:47.412Z,10.63
2022-09-18T00:27:18.915Z,10.67
2022-09-18T00:27:50.399Z,10.65
2022-09-18T00:28:21.908Z,10.61
2022-09-18T00:28:54.712Z,10.63
2022-09-18T00:29:26.206Z,10.64
2022-09-18T00:29:57.728Z,10.64
2022-09-18T00:30:29.214Z,10.65
2022-09-18T00:31:29.815Z,10.60
2022-09-18T00:32:01.738Z,10.65
2022-09-18T00:32:33.236Z,10.64
2022-09-18T00:33:04.878Z,10.60
2022-09-18T00:33:37.624Z,10.60
2022-09-18T00:34:13.128Z,10.61
2022-09-18T00:34:44.662Z,10.59
2022-09-18T00:35:16.171Z,10.60
2022-09-18T00:35:47.675Z,10.61
2022-09-18T00:36:19.818Z,10.60
2022-09-18T00:36:51.321Z,10.59
2022-09-18T00:37:22.932Z,10.64
2022-09-18T00:37:54.435Z,10.60
2022-09-18T00:38:25.944Z,10.59
2022-09-18T00:39:01.317Z,10.57
2022-09-18T00:39:33.008Z,10.54
2022-09-18T00:40:04.941Z,10.61
2022-09-18T00:40:36.629Z,10.61
2022-09-18T00:41:13.215Z,10.56
2022-09-18T00:41:44.912Z,10.56
2022-09-18T00:42:19.776Z,10.56
2022-09-18T00:42:51.288Z,10.50
2022-09-18T00:43:26.603Z,10.53
2022-09-18T00:44:29.814Z,10.51
2022-09-18T00:45:01.345Z,10.53
2022-09-18T00:45:32.846Z,10.50
2022-09-18T00:46:18.092Z,10.49
2022-09-18T00:46:50.046Z,10.49
2022-09-18T00:47:38.166Z,10.44
2022-09-18T00:48:09.708Z,10.44
2022-09-18T00:48:51.784Z,10.43
2022-09-18T00:49:27.041Z,10.40
2022-09-18T00:50:24.521Z,10.47
2022-09-18T00:50:56.408Z,10.40
2022-09-18T00:51:29.151Z,10.46
2022-09-18T00:52:01.727Z,10.40
2022-09-18T00:52:57.964Z,10.39
2022-09-18T00:53:29.940Z,10.43
2022-09-18T00:54:09.380Z,10.39
2022-09-18T00:54:44.243Z,10.42
2022-09-18T00:55:18.019Z,10.43
2022-09-18T00:55:49.557Z,10.37
2022-09-18T00:56:21.083Z,10.39
2022-09-18T00:56:55.808Z,10.42
2022-09-18T00:57:33.273Z,10.36
2022-09-18T00:58:05.173Z,10.37
2022-09-18T00:58:36.702Z,10.37
2022-09-18T00:59:10.735Z,10.33
2022-09-18T00:59:46.388Z,10.34
2022-09-18T01:00:18.364Z,10.34
2022-09-18T01:00:49.987Z,10.33
2022-09-18T01:01:21.563Z,10.30
2022-09-18T01:01:54.275Z,10.33
2022-09-18T01:02:25.960Z,10.34
2022-09-18T01:02:58.999Z,10.33
2022-09-18T01:03:30.513Z,10.29
2022-09-18T01:04:03.879Z,10.30
2022-09-18T01:04:35.589Z,10.36
2022-09-18T01:05:08.405Z,10.30
2022-09-18T01:05:51.993Z,10.24
2022-09-18T01:06:51.329Z,10.28
2022-09-18T01:07:53.049Z,10.28
2022-09-18T01:08:53.049Z,10.24
2022-09-18T01:09:43.478Z,10.22
2022-09-18T01:10:23.871Z,10.23
2022-09-18T01:11:07.473Z,10.24
2022-09-18T01:11:55.165Z,10.23
2022-09-18T01:12:39.037Z,10.23
2022-09-18T01:13:53.921Z,10.26
2022-09-18T01:14:25.373Z,10.22
2022-09-18T01:15:14.473Z,10.23
2022-09-18T01:16:18.213Z,10.24
2022-09-18T01:17:15.455Z,10.29
2022-09-18T01:18:22.215Z,10.24
2022-09-18T01:19:02.885Z,10.24
2022-09-18T01:20:13.623Z,10.17
2022-09-18T01:21:14.645Z,10.20
2022-09-18T01:22:07.829Z,10.22
2022-09-18T01:22:45.345Z,10.22
2022-09-18T01:23:38.899Z,10.23
2022-09-18T01:24:19.261Z,10.24
2022-09-18T01:25:09.579Z,10.24
2022-09-18T01:26:07.103Z,10.20
2022-09-18T01:26:41.345Z,10.23
2022-09-18T01:27:33.328Z,10.26
2022-09-18T01:28:12.552Z,10.24
2022-09-18T01:28:46.937Z,10.23
2022-09-18T01:29:28.364Z,10.22
2022-09-18T01:30:06.853Z,10.22
2022-09-18T01:30:42.439Z,10.29
2022-09-18T01:31:28.282Z,10.30
2022-09-18T01:32:18.929Z,10.23
2022-09-18T01:32:58.213Z,10.24
2022-09-18T01:33:53.487Z,10.22
2022-09-18T01:35:09.575Z,10.23
2022-09-18T01:35:52.994Z,10.20
2022-09-18T01:36:28.185Z,10.19
2022-09-18T01:37:09.777Z,10.19
2022-09-18T01:37:59.505Z,10.22
2022-09-18T01:38:38.425Z,10.20
2022-09-18T01:39:15.317Z,10.23
2022-09-18T01:39:54.444Z,10.23
2022-09-18T01:40:38.553Z,10.17
2022-09-18T01:41:21.693Z,10.26
2022-09-18T01:41:54.977Z,10.22
2022-09-18T01:42:29.394Z,10.24
2022-09-18T01:43:05.266Z,10.30
2022-09-18T01:43:39.681Z,10.29
2022-09-18T01:44:16.466Z,10.26
2022-09-18T01:44:50.230Z,10.16
2022-09-18T01:45:28.566Z,10.24
2022-09-18T01:46:04.541Z,10.24
2022-09-18T01:46:39.991Z,10.24
2022-09-18T01:47:14.542Z,10.28
2022-09-18T01:48:00.183Z,10.24
2022-09-18T01:48:36.653Z,10.23
2022-09-18T01:49:18.307Z,10.17
2022-09-18T01:49:53.322Z,10.16
2022-09-18T01:50:28.421Z,10.23
2022-09-18T01:51:20.604Z,10.19
2022-09-18T01:52:00.373Z,10.24
2022-09-18T01:52:38.584Z,10.24
2022-09-18T01:53:21.613Z,10.26
2022-09-18T01:53:59.330Z,10.24
2022-09-18T01:54:35.535Z,10.22
2022-09-18T01:55:13.620Z,10.20
2022-09-18T01:55:56.736Z,10.24
2022-09-18T01:56:34.809Z,10.23
2022-09-18T01:57:16.886Z,10.17
2022-09-18T01:58:06.853Z,10.16
2022-09-18T01:58:38.896Z,10.14
2022-09-18T01:59:16.470Z,10.14
2022-09-18T02:00:10.137Z,10.17
2022-09-18T02:01:23.040Z,10.10
2022-09-18T02:01:57.805Z,10.14
2022-09-18T02:02:41.885Z,10.09
2022-09-18T02:03:20.779Z,10.12
2022-09-18T02:03:57.137Z,10.06
2022-09-18T02:04:33.070Z,10.03
2022-09-18T02:05:09.905Z,10.06
2022-09-18T02:05:54.146Z,10.05
2022-09-18T02:06:55.010Z,9.99
2022-09-18T02:07:30.736Z,10.02
2022-09-18T02:08:08.513Z,10.02
2022-09-18T02:08:53.247Z,9.95
2022-09-18T02:09:25.057Z,9.96
2022-09-18T02:09:58.511Z,9.86
2022-09-18T02:10:33.791Z,9.89
2022-09-18T02:11:09.474Z,9.88
2022-09-18T02:11:46.247Z,9.88
2022-09-18T02:12:21.154Z,9.86
2022-09-18T02:12:54.349Z,9.84
2022-09-18T02:13:30.702Z,9.81
2022-09-18T02:14:13.403Z,9.82
2022-09-18T02:14:53.105Z,9.75
2022-09-18T02:15:27.322Z,9.77
2022-09-18T02:16:03.600Z,9.77
2022-09-18T02:16:49.071Z,9.82
2022-09-18T02:17:27.657Z,9.78
2022-09-18T02:18:01.750Z,9.77
2022-09-18T02:18:43.661Z,9.74
2022-09-18T02:19:21.851Z,9.72
2022-09-18T02:20:00.437Z,9.75
2022-09-18T02:20:34.979Z,9.81
2022-09-18T02:21:11.816Z,9.79
2022-09-18T02:21:45.469Z,9.77
2022-09-18T02:22:21.421Z,9.71
2022-09-18T02:22:57.865Z,9.71
2022-09-18T02:23:30.975Z,9.75
2022-09-18T02:24:09.079Z,9.71
2022-09-18T02:24:44.996Z,9.68
2022-09-18T02:25:21.145Z,9.72
2022-09-18T02:25:57.304Z,9.74
2022-09-18T02:26:28.961Z,9.77
2022-09-18T02:27:03.066Z,9.78
2022-09-18T02:27:37.990Z,9.70
2022-09-18T02:28:11.583Z,9.72
2022-09-18T02:28:45.883Z,9.72
2022-09-18T02:29:18.549Z,9.70
2022-09-18T02:29:51.288Z,9.71
2022-09-18T02:30:23.094Z,9.72
2022-09-18T02:30:54.745Z,9.71
2022-09-18T02:31:26.423Z,9.72
2022-09-18T02:32:01.883Z,9.70
2022-09-18T02:32:35.951Z,9.71
2022-09-18T02:33:42.815Z,9.72
2022-09-18T02:34:14.365Z,9.71
2022-09-18T02:34:46.049Z,9.71
2022-09-18T02:35:17.585Z,9.71
2022-09-18T02:36:04.965Z,9.64
2022-09-18T02:37:13.880Z,9.65
2022-09-18T02:38:21.611Z,9.67
2022-09-18T02:38:53.093Z,9.65
2022-09-18T02:39:30.496Z,9.62
2022-09-18T02:40:29.757Z,9.68
2022-09-18T02:41:22.920Z,9.61
2022-09-18T02:41:57.177Z,9.62
2022-09-18T02:42:47.377Z,9.59
2022-09-18T02:43:26.897Z,9.64
2022-09-18T02:44:17.493Z,9.62
2022-09-18T02:45:11.494Z,9.68
2022-09-18T02:45:48.772Z,9.71
2022-09-18T02:46:37.783Z,9.65
2022-09-18T02:47:15.021Z,9.65
2022-09-18T02:47:59.393Z,9.67
2022-09-18T02:48:47.780Z,9.65
2022-09-18T02:49:37.682Z,9.61
2022-09-18T02:50:37.457Z,9.59
2022-09-18T02:51:48.757Z,9.59
2022-09-18T02:52:49.801Z,9.55
2022-09-18T02:53:47.982Z,9.57
2022-09-18T02:54:47.085Z,9.57
2022-09-18T02:55:25.998Z,9.52
2022-09-18T02:56:06.494Z,9.52
2022-09-18T02:57:01.021Z,9.48
2022-09-18T02:57:44.198Z,9.50
2022-09-18T02:58:25.128Z,9.48
2022-09-18T02:59:02.497Z,9.47
2022-09-18T02:59:40.053Z,9.40
2022-09-18T03:00:15.432Z,9.43
2022-09-18T03:00:48.848Z,9.47
2022-09-18T03:01:21.854Z,9.45
2022-09-18T03:01:55.659Z,9.43
2022-09-18T03:02:27.843Z,9.44
2022-09-18T03:02:59.955Z,9.45
2022-09-18T03:03:33.582Z,9.48
2022-09-18T03:04:10.162Z,9.47
2022-09-18T03:04:42.075Z,9.40
2022-09-18T03:05:14.190Z,9.40
2022-09-18T03:05:45.861Z,9.41
2022-09-18T03:06:17.966Z,9.37
2022-09-18T03:06:49.561Z,9.43
2022-09-18T03:07:21.101Z,9.43
2022-09-18T03:07:53.222Z,9.37
2022-09-18T03:08:25.245Z,9.40
2022-09-18T03:08:56.777Z,9.37
2022-09-18T03:09:30.025Z,9.35
2022-09-18T03:10:02.471Z,9.30
2022-09-18T03:10:34.003Z,9.33
2022-09-18T03:11:06.093Z,9.31
2022-09-18T03:11:37.605Z,9.30
2022-09-18T03:12:09.482Z,9.34
2022-09-18T03:12:40.993Z,9.33
2022-09-18T03:13:12.501Z,9.31
2022-09-18T03:13:43.992Z,9.28
2022-09-18T03:14:15.773Z,9.30
2022-09-18T03:14:47.481Z,9.31
2022-09-18T03:15:18.965Z,9.26
2022-09-18T03:15:50.556Z,9.26
2022-09-18T03:16:22.297Z,9.30
2022-09-18T03:16:54.068Z,9.31
2022-09-18T03:17:25.557Z,9.31
2022-09-18T03:17:57.046Z,9.35
2022-09-18T03:18:28.669Z,9.28
2022-09-18T03:19:00.517Z,9.30
2022-09-18T03:19:32.048Z,9.26
2022-09-18T03:20:07.412Z,9.22
2022-09-18T03:20:40.355Z,9.26
2022-09-18T03:21:11.902Z,9.24
2022-09-18T03:21:43.440Z,9.27
2022-09-18T03:22:14.953Z,9.24
2022-09-18T03:22:46.447Z,9.23
2022-09-18T03:23:18.001Z,9.26
2022-09-18T03:23:50.065Z,9.16
2022-09-18T03:24:21.635Z,9.12
2022-09-18T03:24:53.125Z,9.10
2022-09-18T03:25:24.622Z,9.12
2022-09-18T03:25:56.173Z,9.16
2022-09-18T03:26:27.734Z,9.13
2022-09-18T03:26:59.354Z,9.17
2022-09-18T03:27:30.867Z,9.16
2022-09-18T03:28:03.000Z,9.12
2022-09-18T03:28:34.526Z,9.12
2022-09-18T03:29:09.653Z,9.19
2022-09-18T03:29:41.142Z,9.12
2022-09-18T03:30:13.198Z,9.10
2022-09-18T03:30:45.524Z,9.10
2022-09-18T03:31:17.151Z,9.09
2022-09-18T03:31:48.921Z,9.12
2022-09-18T03:32:20.506Z,9.12
2022-09-18T03:32:52.027Z,9.10
2022-09-18T03:33:23.541Z,9.10
2022-09-18T03:33:55.194Z,9.07
2022-09-18T03:34:26.694Z,9.06
2022-09-18T03:34:58.202Z,9.07
2022-09-18T03:35:29.765Z,9.13
2022-09-18T03:36:01.443Z,9.10
2022-09-18T03:36:33.110Z,9.14
2022-09-18T03:37:04.729Z,9.14
2022-09-18T03:37:36.239Z,9.14
2022-09-18T03:38:07.734Z,9.14
2022-09-18T03:38:40.099Z,9.16
2022-09-18T03:39:11.590Z,9.23
2022-09-18T03:39:43.098Z,9.20
2022-09-18T03:40:16.063Z,9.20
2022-09-18T03:40:48.090Z,9.23
2022-09-18T03:41:19.706Z,9.20
2022-09-18T03:41:51.189Z,9.20
2022-09-18T03:42:22.824Z,9.22
2022-09-18T03:42:54.312Z,9.16
2022-09-18T03:43:26.906Z,9.19
2022-09-18T03:43:58.470Z,9.17
2022-09-18T03:44:29.962Z,9.23
2022-09-18T03:45:01.567Z,9.24
2022-09-18T03:45:33.119Z,9.19
2022-09-18T03:46:04.758Z,9.16
2022-09-18T03:46:36.450Z,9.19
2022-09-18T03:47:09.613Z,9.19
2022-09-18T03:47:41.181Z,9.19
2022-09-18T03:48:12.673Z,9.19
2022-09-18T03:48:44.204Z,9.17
2022-09-18T03:49:15.712Z,9.14
2022-09-18T03:49:47.199Z,9.17
2022-09-18T03:50:18.715Z,9.13
2022-09-18T03:50:50.532Z,9.16
2022-09-18T03:51:22.153Z,9.16
2022-09-18T03:51:53.755Z,9.16
2022-09-18T03:52:25.245Z,9.16
2022-09-18T03:52:56.748Z,9.14
2022-09-18T03:53:28.236Z,9.12
2022-09-18T03:53:59.919Z,9.12
2022-09-18T03:54:32.645Z,9.13
2022-09-18T03:55:04.385Z,9.07
2022-09-18T03:55:38.978Z,9.10
2022-09-18T03:56:10.476Z,9.16
2022-09-18T03:56:42.080Z,9.16
2022-09-18T03:57:13.645Z,9.13
2022-09-18T03:57:48.801Z,9.19
2022-09-18T03:58:20.403Z,9.19
2022-09-18T03:58:53.654Z,9.17
2022-09-18T03:59:25.148Z,9.19
2022-09-18T03:59:56.624Z,9.16
2022-09-18T04:00:28.155Z,9.13
2022-09-18T04:00:59.695Z,9.12
2022-09-18T04:01:31.257Z,9.12
2022-09-18T04:02:02.998Z,9.14
2022-09-18T04:02:34.608Z,9.13
2022-09-18T04:03:06.442Z,9.16
2022-09-18T04:03:38.055Z,9.14
2022-09-18T04:04:09.705Z,9.12
2022-09-18T04:04:41.198Z,9.16
2022-09-18T04:05:12.773Z,9.17
2022-09-18T04:05:44.293Z,9.16
2022-09-18T04:06:16.249Z,9.19
2022-09-18T04:06:47.747Z,9.12
2022-09-18T04:07:19.659Z,9.13
2022-09-18T04:07:51.268Z,9.13
2022-09-18T04:08:22.757Z,9.16
2022-09-18T04:08:54.299Z,9.13
2022-09-18T04:09:25.789Z,9.10
2022-09-18T04:09:57.389Z,9.10
2022-09-18T04:10:28.887Z,9.12
2022-09-18T04:11:00.445Z,9.10
2022-09-18T04:11:31.930Z,9.06
2022-09-18T04:12:03.573Z,9.10
2022-09-18T04:12:35.138Z,9.10
2022-09-18T04:13:06.665Z,9.07
2022-09-18T04:13:38.195Z,9.07
2022-09-18T04:14:09.745Z,9.10
2022-09-18T04:14:41.226Z,9.09
2022-09-18T04:15:12.751Z,9.06
2022-09-18T04:15:45.337Z,9.06
2022-09-18T04:16:17.007Z,9.07
2022-09-18T04:16:49.221Z,9.07
2022-09-18T04:17:21.186Z,9.04
2022-09-18T04:17:52.686Z,9.07
2022-09-18T04:18:24.231Z,9.02
2022-09-18T04:18:55.850Z,9.12
2022-09-18T04:19:27.527Z,9.02
2022-09-18T04:19:59.016Z,9.07
2022-09-18T04:20:31.711Z,9.09
2022-09-18T04:21:03.449Z,9.09
2022-09-18T04:21:34.945Z,9.13
2022-09-18T04:22:06.469Z,9.17
2022-09-18T04:22:37.996Z,9.14
2022-09-18T04:23:11.523Z,9.09
2022-09-18T04:23:43.185Z,9.03
2022-09-18T04:24:14.746Z,9.03
2022-09-18T04:24:46.740Z,9.02
2022-09-18T04:25:18.283Z,8.99
2022-09-18T04:25:49.805Z,9.00
2022-09-18T04:26:22.478Z,9.03
2022-09-18T04:26:53.997Z,9.02
2022-09-18T04:27:25.490Z,8.95
2022-09-18T04:27:57.190Z,8.97
2022-09-18T04:28:28.677Z,8.95
2022-09-18T04:29:00.466Z,8.97
2022-09-18T04:29:32.605Z,8.97
2022-09-18T04:30:04.393Z,8.99
2022-09-18T04:30:36.478Z,8.99
2022-09-18T04:31:08.046Z,9.00
2022-09-18T04:31:39.678Z,8.90
2022-09-18T04:32:11.278Z,8.97
2022-09-18T04:32:43.771Z,8.99
2022-09-18T04:33:16.070Z,8.93
2022-09-18T04:33:48.378Z,8.99
2022-09-18T04:34:19.899Z,9.02
2022-09-18T04:34:51.446Z,9.02
2022-09-18T04:35:23.654Z,9.06
2022-09-18T04:35:57.077Z,9.07
2022-09-18T04:36:28.628Z,9.04
2022-09-18T04:37:00.138Z,9.04
2022-09-18T04:37:31.643Z,9.02
2022-09-18T04:38:03.663Z,8.97
2022-09-18T04:38:35.213Z,8.97
2022-09-18T04:39:06.755Z,8.93
2022-09-18T04:39:38.279Z,8.95
2022-09-18T04:40:11.134Z,8.92
2022-09-18T04:40:43.073Z,8.97
2022-09-18T04:41:14.644Z,8.95
2022-09-18T04:41:46.143Z,8.93
2022-09-18T04:42:17.648Z,8.86
2022-09-18T04:42:49.246Z,8.90
2022-09-18T04:43:20.806Z,8.96
2022-09-18T04:43:52.323Z,8.95
2022-09-18T04:44:23.814Z,8.92
2022-09-18T04:44:55.310Z,8.92
2022-09-18T04:45:26.816Z,8.93
2022-09-18T04:45:58.310Z,8.95
2022-09-18T04:46:29.848Z,8.96
2022-09-18T04:47:01.786Z,8.95
2022-09-18T04:47:33.370Z,9.00
2022-09-18T04:48:04.868Z,9.04
2022-09-18T04:48:36.485Z,9.02
2022-09-18T04:49:07.970Z,9.04
2022-09-18T04:49:40.270Z,9.03
2022-09-18T04:50:11.813Z,9.03
2022-09-18T04:50:43.337Z,9.06
2022-09-18T04:51:15.246Z,9.06
2022-09-18T04:51:46.776Z,9.04
2022-09-18T04:52:19.259Z,9.06
2022-09-18T04:52:50.764Z,9.07
2022-09-18T04:53:22.475Z,9.10
2022-09-18T04:53:53.989Z,9.09
2022-09-18T04:54:25.516Z,9.13
2022-09-18T04:54:57.425Z,9.13
2022-09-18T04:55:29.732Z,9.12
2022-09-18T04:56:01.636Z,9.20
2022-09-18T04:56:33.186Z,9.24
2022-09-18T04:57:05.248Z,9.26
2022-09-18T04:57:36.748Z,9.24
2022-09-18T04:58:08.332Z,9.26
2022-09-18T04:58:39.820Z,9.24
2022-09-18T04:59:11.344Z,9.27
2022-09-18T04:59:42.828Z,9.26
2022-09-18T05:00:14.447Z,9.30
2022-09-18T05:00:49.928Z,9.27
2022-09-18T05:01:21.573Z,9.26
2022-09-18T05:01:53.236Z,9.30
2022-09-18T05:02:24.931Z,9.31
2022-09-18T05:02:56.481Z,9.30
2022-09-18T05:03:28.086Z,9.35
2022-09-18T05:03:59.585Z,9.37
2022-09-18T05:04:31.088Z,9.38
2022-09-18T05:05:02.587Z,9.37
2022-09-18T05:05:34.270Z,9.38
2022-09-18T05:06:05.973Z,9.40
2022-09-18T05:06:37.486Z,9.34
2022-09-18T05:07:08.978Z,9.35
2022-09-18T05:07:40.470Z,9.28
2022-09-18T05:08:11.977Z,9.30
2022-09-18T05:08:44.034Z,9.24
2022-09-18T05:09:15.546Z,9.26
2022-09-18T05:09:47.044Z,9.26
2022-09-18T05:10:18.531Z,9.22
2022-09-18T05:10:50.047Z,9.23
2022-09-18T05:11:21.588Z,9.22
2022-09-18T05:11:54.528Z,9.20
2022-09-18T05:12:26.071Z,9.31
2022-09-18T05:12:57.592Z,9.34
2022-09-18T05:13:29.177Z,9.31
2022-09-18T05:14:00.944Z,9.30
2022-09-18T05:14:32.448Z,9.34
2022-09-18T05:15:04.444Z,9.33
2022-09-18T05:15:35.952Z,9.33
2022-09-18T05:16:07.779Z,9.34
2022-09-18T05:16:39.422Z,9.30
2022-09-18T05:17:11.315Z,9.43
2022-09-18T05:17:42.807Z,9.47
2022-09-18T05:18:14.327Z,9.41
2022-09-18T05:18:45.816Z,9.47
2022-09-18T05:19:17.356Z,9.48
2022-09-18T05:19:48.896Z,9.50
2022-09-18T05:20:20.543Z,9.50
2022-09-18T05:20:52.079Z,9.48
2022-09-18T05:21:23.574Z,9.44
2022-09-18T05:21:55.060Z,9.51
2022-09-18T05:22:26.888Z,9.52
2022-09-18T05:22:58.382Z,9.54
2022-09-18T05:23:29.898Z,9.44
2022-09-18T05:24:01.539Z,9.51
2022-09-18T05:24:33.072Z,9.58
2022-09-18T05:25:05.129Z,9.54
2022-09-18T05:25:36.920Z,9.58
2022-09-18T05:26:08.477Z,9.62
2022-09-18T05:26:39.998Z,9.62
2022-09-18T05:27:11.482Z,9.58
2022-09-18T05:27:42.973Z,9.67
2022-09-18T05:28:15.722Z,9.65
2022-09-18T05:28:50.557Z,9.71
2022-09-18T05:29:22.104Z,9.74
2022-09-18T05:29:53.668Z,9.79
2022-09-18T05:30:26.722Z,9.78
2022-09-18T05:31:00.095Z,9.74
2022-09-18T05:31:31.781Z,9.78
2022-09-18T05:32:03.366Z,9.79
2022-09-18T05:32:34.904Z,9.98
2022-09-18T05:33:07.965Z,10.01
2022-09-18T05:33:42.447Z,9.98
2022-09-18T05:34:13.954Z,10.01
2022-09-18T05:34:45.962Z,9.93
2022-09-18T05:35:17.454Z,9.95
2022-09-18T05:35:53.870Z,9.92
2022-09-18T05:36:25.363Z,9.93
2022-09-18T05:36:57.044Z,9.88
2022-09-18T05:37:28.535Z,9.95
2022-09-18T05:38:00.817Z,9.93
2022-09-18T05:38:32.426Z,9.93
2022-09-18T05:39:04.051Z,9.95
2022-09-18T05:39:35.550Z,9.92
2022-09-18T05:40:07.339Z,10.02
2022-09-18T05:40:39.563Z,10.02
2022-09-18T05:41:11.337Z,9.95
2022-09-18T05:41:42.836Z,10.01
2022-09-18T05:42:14.338Z,10.02
2022-09-18T05:42:48.816Z,9.99
2022-09-18T05:43:20.364Z,10.02
2022-09-18T05:43:51.900Z,10.06
2022-09-18T05:44:23.448Z,10.06
2022-09-18T05:44:57.617Z,10.06
2022-09-18T05:45:33.522Z,10.02
2022-09-18T05:46:05.006Z,10.08
2022-09-18T05:46:36.545Z,10.10
2022-09-18T05:47:08.092Z,10.09
2022-09-18T05:47:40.154Z,10.10
2022-09-18T05:48:14.483Z,10.12
2022-09-18T05:48:48.802Z,10.19
2022-09-18T05:49:20.335Z,10.22
2022-09-18T05:49:51.827Z,10.26
2022-09-18T05:50:24.968Z,10.28
2022-09-18T05:50:56.778Z,10.29
2022-09-18T05:51:28.275Z,10.30
2022-09-18T05:51:59.776Z,10.33
2022-09-18T05:52:31.273Z,10.33
2022-09-18T05:53:04.674Z,10.43
2022-09-18T05:53:36.166Z,10.44
2022-09-18T05:54:07.696Z,10.43
2022-09-18T05:54:39.211Z,10.39
2022-09-18T05:55:10.703Z,10.47
2022-09-18T05:55:42.718Z,10.46
2022-09-18T05:56:16.078Z,10.53
2022-09-18T05:56:47.703Z,10.56
2022-09-18T05:57:19.198Z,10.53
2022-09-18T05:57:54.075Z,10.60
2022-09-18T05:58:25.632Z,10.60
2022-09-18T05:58:57.192Z,10.59
2022-09-18T05:59:28.675Z,10.60
2022-09-18T06:00:00.181Z,10.65
2022-09-18T06:00:33.785Z,10.67
2022-09-18T06:01:05.353Z,10.70
2022-09-18T06:01:36.905Z,10.67
2022-09-18T06:02:10.638Z,10.72
2022-09-18T06:02:42.193Z,10.77
2022-09-18T06:03:15.880Z,10.77
2022-09-18T06:03:50.005Z,10.82
2022-09-18T06:04:21.508Z,10.87
2022-09-18T06:04:53.010Z,10.88
2022-09-18T06:05:25.135Z,10.85
2022-09-18T06:05:56.672Z,10.84
2022-09-18T06:06:29.206Z,10.94
2022-09-18T06:07:01.686Z,10.90
2022-09-18T06:07:33.172Z,10.95
2022-09-18T06:08:06.981Z,10.98
2022-09-18T06:08:38.590Z,10.98
2022-09-18T06:09:10.096Z,10.97
2022-09-18T06:09:41.599Z,11.05
2022-09-18T06:10:13.408Z,11.04
2022-09-18T06:10:45.376Z,11.04
2022-09-18T06:11:16.868Z,11.08
2022-09-18T06:11:48.352Z,11.07
2022-09-18T06:12:19.841Z,11.02
2022-09-18T06:12:59.352Z,11.02
2022-09-18T06:13:30.884Z,11.08
2022-09-18T06:14:02.414Z,11.11
2022-09-18T06:14:33.922Z,11.04
2022-09-18T06:15:06.826Z,11.05
2022-09-18T06:15:38.832Z,11.11
2022-09-18T06:16:10.459Z,11.08
2022-09-18T06:16:42.593Z,11.11
2022-09-18T06:17:14.206Z,11.08
2022-09-18T06:17:51.346Z,11.09
2022-09-18T06:18:23.046Z,11.12
2022-09-18T06:18:54.646Z,11.12
2022-09-18T06:19:26.227Z,11.12
2022-09-18T06:19:57.868Z,11.18
2022-09-18T06:20:29.408Z,11.21
2022-09-18T06:21:00.892Z,11.23
2022-09-18T06:21:32.378Z,11.25
2022-09-18T06:22:03.944Z,11.28
2022-09-18T06:22:38.320Z,11.30
2022-09-18T06:23:09.926Z,11.26
2022-09-18T06:23:45.304Z,11.22
2022-09-18T06:24:16.918Z,11.21
2022-09-18T06:24:48.410Z,11.28
2022-09-18T06:25:21.775Z,11.29
2022-09-18T06:26:00.600Z,11.38
2022-09-18T06:26:32.284Z,11.38
2022-09-18T06:27:03.968Z,11.42
2022-09-18T06:27:35.453Z,11.39
2022-09-18T06:28:06.956Z,11.40
2022-09-18T06:28:38.478Z,11.43
2022-09-18T06:29:09.993Z,11.46
2022-09-18T06:29:41.564Z,11.43
2022-09-18T06:30:13.536Z,11.47
2022-09-18T06:30:45.152Z,11.52
2022-09-18T06:31:16.747Z,11.52
2022-09-18T06:31:48.363Z,11.56
2022-09-18T06:32:20.540Z,11.60
2022-09-18T06:32:52.321Z,11.67
2022-09-18T06:33:23.853Z,11.71
2022-09-18T06:33:55.382Z,11.70
2022-09-18T06:34:26.873Z,11.74
2022-09-18T06:34:58.516Z,11.79
2022-09-18T06:35:30.400Z,11.81
2022-09-18T06:36:06.257Z,11.84
2022-09-18T06:36:37.742Z,11.81
2022-09-18T06:37:10.345Z,11.84
2022-09-18T06:37:42.042Z,11.86
2022-09-18T06:38:13.576Z,11.81
2022-09-18T06:38:45.136Z,11.87
2022-09-18T06:39:16.646Z,11.88
2022-09-18T06:39:48.158Z,11.94
2022-09-18T06:40:19.797Z,12.00
2022-09-18T06:40:52.764Z,12.02
2022-09-18T06:41:24.850Z,12.16
2022-09-18T06:41:56.340Z,12.18
2022-09-18T06:42:27.869Z,12.31
2022-09-18T06:43:01.755Z,12.37
2022-09-18T06:43:33.271Z,12.53
2022-09-18T06:44:04.775Z,12.62
2022-09-18T06:44:36.973Z,12.77
2022-09-18T06:45:09.372Z,12.87
2022-09-18T06:45:40.881Z,13.28
2022-09-18T06:46:12.582Z,13.38
2022-09-18T06:46:44.204Z,13.54
2022-09-18T06:47:15.824Z,13.53
2022-09-18T06:47:47.426Z,13.69
2022-09-18T06:48:19.026Z,13.53
2022-09-18T06:48:50.633Z,13.69
2022-09-18T06:49:22.317Z,13.96
2022-09-18T06:49:53.802Z,13.96
2022-09-18T06:50:25.519Z,14.48
2022-09-18T06:50:59.529Z,14.47
2022-09-18T06:51:31.015Z,14.78
2022-09-18T06:52:02.768Z,15.08
2022-09-18T06:52:34.261Z,15.53
2022-09-18T06:53:12.244Z,15.35
2022-09-18T06:53:44.114Z,15.77
2022-09-18T06:54:16.951Z,15.98
2022-09-18T06:54:48.443Z,15.83
2022-09-18T06:55:19.974Z,15.97
2022-09-18T06:55:52.007Z,15.66
2022-09-18T06:56:23.589Z,16.22
2022-09-18T06:56:55.125Z,16.26
2022-09-18T06:57:26.686Z,16.56
2022-09-18T06:57:59.604Z,16.97
2022-09-18T06:58:31.876Z,17.10
2022-09-18T06:59:03.472Z,17.14
2022-09-18T06:59:35.051Z,17.45
2022-09-18T07:00:07.382Z,18.06
2022-09-18T07:00:38.993Z,18.16
2022-09-18T07:01:10.588Z,18.27
2022-09-18T07:01:42.210Z,18.34
2022-09-18T07:02:19.217Z,18.40
2022-09-18T07:02:58.185Z,18.98
2022-09-18T07:03:29.792Z,19.18
2022-09-18T07:04:01.483Z,18.85
2022-09-18T07:04:33.131Z,19.19
2022-09-18T07:05:04.884Z,18.96
2022-09-18T07:05:41.552Z,19.74
2022-09-18T07:06:13.105Z,19.57
2022-09-18T07:06:45.972Z,19.66
2022-09-18T07:07:17.458Z,19.16
2022-09-18T07:07:48.941Z,20.10
2022-09-18T07:08:20.469Z,19.63
2022-09-18T07:08:52.583Z,19.73
2022-09-18T07:09:24.069Z,20.02
2022-09-18T07:09:55.642Z,20.00
2022-09-18T07:10:27.537Z,20.48
2022-09-18T07:11:02.566Z,19.91
2022-09-18T07:11:34.101Z,19.78
2022-09-18T07:12:05.942Z,20.04
2022-09-18T07:12:37.525Z,20.17
2022-09-18T07:13:09.572Z,20.26
2022-09-18T07:13:41.089Z,20.80
2022-09-18T07:14:12.851Z,20.55
2022-09-18T07:14:44.344Z,20.38
2022-09-18T07:15:17.477Z,19.91
2022-09-18T07:15:49.154Z,19.49
2022-09-18T07:16:20.766Z,20.08
2022-09-18T07:16:52.372Z,19.71
2022-09-18T07:17:26.362Z,18.58
2022-09-18T07:18:00.155Z,19.46
2022-09-18T07:18:31.704Z,19.63
2022-09-18T07:19:03.495Z,18.50
2022-09-18T07:19:34.992Z,18.54
2022-09-18T07:20:06.776Z,18.65
2022-09-18T07:20:38.320Z,18.69
2022-09-18T07:21:09.842Z,18.26
2022-09-18T07:21:41.336Z,17.95
2022-09-18T07:22:12.839Z,18.14
2022-09-18T07:22:51.557Z,17.30
2022-09-18T07:23:23.066Z,17.92
2022-09-18T07:23:54.559Z,18.57
2022-09-18T07:24:26.194Z,18.84
2022-09-18T07:24:57.692Z,18.75
2022-09-18T07:25:31.449Z,18.05
2022-09-18T07:26:04.675Z,17.86
2022-09-18T07:26:36.196Z,18.53
2022-09-18T07:27:07.749Z,18.78
2022-09-18T07:27:39.228Z,18.51
2022-09-18T07:28:11.408Z,18.85
2022-09-18T07:28:42.897Z,18.76
2022-09-18T07:29:14.390Z,18.88
2022-09-18T07:29:45.914Z,18.50
2022-09-18T07:30:17.673Z,18.79
2022-09-18T07:30:49.210Z,18.94
2022-09-18T07:31:20.739Z,18.44